createdAt,value
2023-04-01T00:00:29.497Z,1.97
2023-04-01T00:02:55.808Z,1.73
2023-04-01T00:05:22.095Z,1.96
2023-04-01T00:07:48.368Z,1.71
2023-04-01T00:10:14.664Z,1.92
2023-04-01T00:12:40.922Z,1.90
2023-04-01T00:15:07.187Z,2.16
2023-04-01T00:17:33.573Z,1.78
2023-04-01T00:19:59.888Z,1.70
2023-04-01T00:22:26.134Z,2.22
2023-04-01T00:24:52.389Z,2.33
2023-04-01T00:27:18.688Z,2.13
2023-04-01T00:29:44.982Z,1.85
2023-04-01T00:32:11.225Z,2.04
2023-04-01T00:34:37.508Z,2.10
2023-04-01T00:37:03.746Z,1.88
2023-04-01T00:39:30.007Z,1.94
2023-04-01T00:41:56.284Z,2.19
2023-04-01T00:44:22.561Z,2.06
2023-04-01T00:46:48.803Z,1.84
2023-04-01T00:49:15.135Z,1.92
2023-04-01T00:51:41.401Z,2.13
2023-04-01T00:54:07.679Z,2.23
2023-04-01T00:56:33.994Z,1.63
2023-04-01T00:59:00.327Z,1.49
2023-04-01T01:01:26.754Z,1.73
2023-04-01T01:03:53.154Z,1.56
2023-04-01T01:06:19.431Z,1.50
2023-04-01T01:08:45.708Z,1.61
2023-04-01T01:11:12.597Z,1.47
2023-04-01T01:13:38.895Z,1.72
2023-04-01T01:16:05.215Z,1.72
2023-04-01T01:18:31.474Z,1.64
2023-04-01T01:20:57.711Z,1.74
2023-04-01T01:23:23.975Z,1.47
2023-04-01T01:25:50.246Z,1.46
2023-04-01T01:28:16.480Z,1.41
2023-04-01T01:30:42.767Z,1.76
2023-04-01T01:33:09.112Z,1.69
2023-04-01T01:35:35.423Z,3.06
2023-04-01T01:38:01.696Z,2.78
2023-04-01T01:40:27.985Z,1.39
2023-04-01T01:42:54.237Z,1.27
2023-04-01T01:45:20.515Z,1.16
2023-04-01T01:47:46.813Z,1.09
2023-04-01T01:50:13.118Z,1.10
2023-04-01T01:52:39.400Z,1.12
2023-04-01T01:55:05.675Z,1.32
2023-04-01T01:57:32.015Z,1.37
2023-04-01T01:59:58.385Z,1.41
2023-04-01T02:02:24.674Z,1.52
2023-04-01T02:04:50.995Z,1.41
2023-04-01T02:07:17.353Z,1.42
2023-04-01T02:09:43.620Z,1.74
2023-04-01T02:12:09.877Z,1.61
2023-04-01T02:14:36.153Z,1.73
2023-04-01T02:17:02.394Z,1.81
2023-04-01T02:19:28.682Z,1.41
2023-04-01T02:21:54.947Z,1.61
2023-04-01T02:24:21.201Z,1.46
2023-04-01T02:26:47.459Z,1.39
2023-04-01T02:29:13.738Z,1.67
2023-04-01T02:31:40.067Z,1.53
2023-04-01T02:34:06.369Z,1.68
2023-04-01T02:36:32.655Z,1.74
2023-04-01T02:38:58.906Z,1.89
2023-04-01T02:41:25.177Z,1.40
2023-04-01T02:43:51.451Z,1.34
2023-04-01T02:46:17.714Z,1.52
2023-04-01T02:48:43.978Z,1.24
2023-04-01T02:51:10.228Z,1.44
2023-04-01T02:53:36.519Z,1.47
2023-04-01T02:56:02.795Z,1.33
2023-04-01T02:58:29.093Z,1.24
2023-04-01T03:00:55.414Z,1.12
2023-04-01T03:03:21.705Z,1.02
2023-04-01T03:05:47.965Z,1.01
2023-04-01T03:08:14.242Z,0.95
2023-04-01T03:10:40.525Z,0.86
2023-04-01T03:13:06.785Z,0.82
2023-04-01T03:15:33.215Z,0.86
2023-04-01T03:17:59.674Z,0.78
2023-04-01T03:20:25.959Z,1.13
2023-04-01T03:22:52.227Z,0.96
2023-04-01T03:25:18.471Z,1.03
2023-04-01T03:27:44.752Z,0.99
2023-04-01T03:30:11.064Z,0.92
2023-04-01T03:32:37.376Z,0.96
2023-04-01T03:35:03.696Z,1.09
2023-04-01T03:37:29.953Z,1.18
2023-04-01T03:39:56.234Z,1.02
2023-04-01T03:42:22.483Z,1.06
2023-04-01T03:44:48.725Z,1.40
2023-04-01T03:47:14.984Z,1.17
2023-04-01T03:49:41.273Z,1.23
2023-04-01T03:52:07.550Z,1.22
2023-04-01T03:54:33.790Z,1.04
2023-04-01T03:57:00.099Z,1.26
2023-04-01T03:59:26.393Z,1.15
2023-04-01T04:01:52.629Z,1.18
2023-04-01T04:04:18.952Z,1.55
2023-04-01T04:06:45.225Z,1.32
2023-04-01T04:09:11.488Z,1.36
2023-04-01T04:11:37.775Z,1.25
2023-04-01T04:14:04.033Z,1.44
2023-04-01T04:16:30.359Z,1.42
2023-04-01T04:18:56.725Z,1.62
2023-04-01T04:21:22.983Z,1.50
2023-04-01T04:23:49.233Z,1.14
2023-04-01T04:26:15.498Z,1.45
2023-04-01T04:28:41.800Z,1.29
2023-04-01T04:31:08.132Z,1.45
2023-04-01T04:33:34.431Z,1.54
2023-04-01T04:36:00.756Z,1.32
2023-04-01T04:38:27.053Z,1.48
2023-04-01T04:40:53.323Z,1.35
2023-04-01T04:43:19.613Z,1.31
2023-04-01T04:45:45.944Z,1.23
2023-04-01T04:48:12.222Z,1.05
2023-04-01T04:50:38.510Z,1.27
2023-04-01T04:53:04.833Z,1.34
2023-04-01T04:55:31.383Z,1.17
2023-04-01T04:57:57.942Z,1.06
2023-04-01T05:00:24.221Z,1.15
2023-04-01T05:02:50.596Z,1.07
2023-04-01T05:05:16.922Z,1.01
2023-04-01T05:07:43.212Z,0.86
2023-04-01T05:10:09.468Z,0.99
2023-04-01T05:12:35.721Z,0.90
2023-04-01T05:15:01.991Z,1.18
2023-04-01T05:17:28.274Z,1.21
2023-04-01T05:19:54.540Z,0.92
2023-04-01T05:22:20.792Z,0.96
2023-04-01T05:24:47.047Z,0.88
2023-04-01T05:27:13.352Z,1.17
2023-04-01T05:29:39.677Z,0.87
2023-04-01T05:32:06.015Z,1.26
2023-04-01T05:34:32.646Z,0.96
2023-04-01T05:36:58.922Z,1.37
2023-04-01T05:39:25.266Z,1.31
2023-04-01T05:41:51.524Z,1.22
2023-04-01T05:44:17.814Z,1.29
2023-04-01T05:46:44.096Z,1.39
2023-04-01T05:49:10.382Z,1.41
2023-04-01T05:51:36.654Z,1.35
2023-04-01T05:54:02.920Z,1.09
2023-04-01T05:56:29.207Z,1.53
2023-04-01T05:58:55.498Z,1.58
2023-04-01T06:01:21.877Z,1.73
2023-04-01T06:03:48.335Z,1.20
2023-04-01T06:06:14.907Z,1.37
2023-04-01T06:08:41.157Z,1.36
2023-04-01T06:11:07.393Z,1.24
2023-04-01T06:13:33.676Z,1.48
2023-04-01T06:15:59.955Z,1.34
2023-04-01T06:18:26.220Z,1.22
2023-04-01T06:20:52.482Z,1.01
2023-04-01T06:23:18.746Z,0.97
2023-04-01T06:25:45.025Z,1.17
2023-04-01T06:28:11.315Z,0.92
2023-04-01T06:30:37.611Z,1.12
2023-04-01T06:33:03.938Z,1.17
2023-04-01T06:35:30.359Z,1.18
2023-04-01T06:37:56.765Z,0.96
2023-04-01T06:40:23.071Z,0.84
2023-04-01T06:42:49.346Z,0.80
2023-04-01T06:45:15.605Z,0.57
2023-04-01T06:47:43.899Z,0.72
2023-04-01T06:50:11.666Z,0.55
2023-04-01T06:52:37.986Z,0.50
2023-04-01T06:55:04.268Z,0.52
2023-04-01T06:57:30.720Z,0.45
2023-04-01T06:59:57.149Z,0.63
2023-04-01T07:02:23.410Z,0.58
2023-04-01T07:04:49.693Z,0.57
2023-04-01T07:07:15.971Z,0.61
2023-04-01T07:09:44.196Z,0.72
2023-04-01T07:12:10.469Z,0.72
2023-04-01T07:14:36.713Z,0.83
2023-04-01T07:17:03.081Z,0.77
2023-04-01T07:19:29.389Z,0.85
2023-04-01T07:21:55.699Z,0.83
2023-04-01T07:24:21.965Z,0.76
2023-04-01T07:26:49.713Z,0.90
2023-04-01T07:29:15.974Z,0.80
2023-04-01T07:31:42.300Z,0.97
2023-04-01T07:34:08.557Z,1.19
2023-04-01T07:36:34.850Z,1.05
2023-04-01T07:39:01.288Z,1.08
2023-04-01T07:41:27.563Z,0.93
2023-04-01T07:43:53.811Z,0.87
2023-04-01T07:46:20.134Z,0.78
2023-04-01T07:48:46.513Z,0.93
2023-04-01T07:51:12.794Z,0.76
2023-04-01T07:53:39.081Z,0.86
2023-04-01T07:56:05.314Z,0.87
2023-04-01T07:58:31.581Z,0.83
2023-04-01T08:00:57.838Z,0.90
2023-04-01T08:03:24.255Z,0.92
2023-04-01T08:05:50.714Z,1.14
2023-04-01T08:08:16.978Z,0.90
2023-04-01T08:10:43.233Z,0.88
2023-04-01T08:13:09.497Z,1.07
2023-04-01T08:15:35.915Z,0.72
2023-04-01T08:18:02.397Z,0.84
2023-04-01T08:20:28.674Z,0.70
2023-04-01T08:22:54.961Z,0.79
2023-04-01T08:25:21.201Z,0.74
2023-04-01T08:27:47.463Z,0.66
2023-04-01T08:30:13.757Z,0.91
2023-04-01T08:32:40.084Z,0.80
2023-04-01T08:35:06.359Z,0.90
2023-04-01T08:37:32.633Z,0.59
2023-04-01T08:39:59.096Z,0.88
2023-04-01T08:42:25.376Z,0.96
2023-04-01T08:44:51.675Z,1.29
2023-04-01T08:47:17.995Z,0.64
2023-04-01T08:49:44.316Z,0.66
2023-04-01T08:52:10.593Z,1.14
2023-04-01T08:54:36.838Z,0.83
2023-04-01T08:57:03.176Z,0.64
2023-04-01T08:59:29.445Z,1.00
2023-04-01T09:01:55.745Z,0.73
2023-04-01T09:04:22.103Z,0.54
2023-04-01T09:06:48.457Z,0.60
2023-04-01T09:09:14.724Z,0.57
2023-04-01T09:11:41.026Z,0.58
2023-04-01T09:14:07.363Z,0.46
2023-04-01T09:16:33.679Z,0.44
2023-04-01T09:18:59.992Z,0.43
2023-04-01T09:21:26.245Z,0.43
2023-04-01T09:23:52.508Z,0.49
2023-04-01T09:26:18.808Z,0.46
2023-04-01T09:28:45.118Z,0.54
2023-04-01T09:31:11.496Z,0.59
2023-04-01T09:33:37.804Z,0.62
2023-04-01T09:36:04.109Z,0.50
2023-04-01T09:38:30.434Z,0.57
2023-04-01T09:40:56.669Z,0.53
2023-04-01T09:43:22.934Z,0.49
2023-04-01T09:45:49.210Z,0.47
2023-04-01T09:48:15.483Z,0.57
2023-04-01T09:50:41.842Z,0.72
2023-04-01T09:53:08.254Z,0.54
2023-04-01T09:55:34.730Z,0.60
2023-04-01T09:58:01.128Z,0.43
2023-04-01T10:00:27.388Z,0.57
2023-04-01T10:02:53.691Z,0.60
2023-04-01T10:05:19.965Z,0.73
2023-04-01T10:07:46.281Z,0.92
2023-04-01T10:10:12.575Z,0.66
2023-04-01T10:12:38.830Z,0.49
2023-04-01T10:15:05.147Z,0.82
2023-04-01T10:17:31.438Z,0.70
2023-04-01T10:19:57.706Z,0.73
2023-04-01T10:22:23.992Z,0.83
2023-04-01T10:24:50.256Z,0.76
2023-04-01T10:27:16.568Z,0.70
2023-04-01T10:29:42.836Z,0.79
2023-04-01T10:32:09.487Z,0.63
2023-04-01T10:34:35.959Z,0.83
2023-04-01T10:37:02.206Z,0.66
2023-04-01T10:39:28.512Z,0.71
2023-04-01T10:41:54.760Z,0.65
2023-04-01T10:44:21.050Z,0.92
2023-04-01T10:46:47.324Z,0.74
2023-04-01T10:49:13.589Z,0.87
2023-04-01T10:51:39.876Z,0.82
2023-04-01T10:54:06.131Z,0.85
2023-04-01T10:56:32.387Z,0.70
2023-04-01T10:58:58.665Z,0.92
2023-04-01T11:01:25.029Z,0.76
2023-04-01T11:03:51.467Z,1.31
2023-04-01T11:06:17.792Z,0.88
2023-04-01T11:08:44.138Z,0.91
2023-04-01T11:11:10.396Z,0.88
2023-04-01T11:13:36.680Z,0.69
2023-04-01T11:16:03.045Z,0.68
2023-04-01T11:18:29.328Z,0.59
2023-04-01T11:20:55.606Z,0.76
2023-04-01T11:23:21.890Z,0.65
2023-04-01T11:25:48.173Z,0.58
2023-04-01T11:28:14.423Z,0.55
2023-04-01T11:30:40.671Z,0.61
2023-04-01T11:33:06.990Z,0.66
2023-04-01T11:35:33.524Z,0.56
2023-04-01T11:37:59.922Z,0.41
2023-04-01T11:40:26.175Z,0.61
2023-04-01T11:42:52.445Z,0.58
2023-04-01T11:45:18.741Z,0.69
2023-04-01T11:47:45.052Z,0.46
2023-04-01T11:50:11.358Z,0.49
2023-04-01T11:52:37.640Z,0.45
2023-04-01T11:55:03.872Z,0.36
2023-04-01T11:57:30.241Z,0.46
2023-04-01T11:59:56.603Z,0.35
2023-04-01T12:02:23.008Z,0.46
2023-04-01T12:04:49.533Z,0.57
2023-04-01T12:07:15.850Z,0.44
2023-04-01T12:09:42.207Z,0.48
2023-04-01T12:12:08.520Z,0.71
2023-04-01T12:14:34.765Z,0.66
2023-04-01T12:17:01.032Z,0.47
2023-04-01T12:19:27.329Z,0.51
2023-04-01T12:21:53.621Z,0.83
2023-04-01T12:24:19.960Z,0.87
2023-04-01T12:26:46.287Z,0.92
2023-04-01T12:29:12.579Z,0.59
2023-04-01T12:31:38.907Z,0.43
2023-04-01T12:34:05.240Z,0.55
2023-04-01T12:36:31.509Z,0.64
2023-04-01T12:38:57.766Z,0.69
2023-04-01T12:41:24.028Z,0.76
2023-04-01T12:43:50.332Z,0.55
2023-04-01T12:46:16.644Z,0.65
2023-04-01T12:48:42.923Z,0.52
2023-04-01T12:51:09.251Z,0.62
2023-04-01T12:53:35.507Z,0.76
2023-04-01T12:56:01.841Z,0.55
2023-04-01T12:58:28.089Z,0.34
2023-04-01T13:00:54.413Z,0.53
2023-04-01T13:03:20.783Z,0.53
2023-04-01T13:05:47.101Z,0.67
2023-04-01T13:08:13.374Z,0.91
2023-04-01T13:10:39.653Z,0.67
2023-04-01T13:13:05.970Z,0.56
2023-04-01T13:15:32.286Z,0.53
2023-04-01T13:17:58.632Z,0.58
2023-04-01T13:20:24.923Z,0.70
2023-04-01T13:22:51.185Z,0.56
2023-04-01T13:25:17.471Z,0.50
2023-04-01T13:27:43.734Z,0.61
2023-04-01T13:30:10.040Z,0.60
2023-04-01T13:35:05.478Z,0.59
2023-04-01T13:37:32.980Z,0.56
2023-04-01T13:40:00.643Z,0.65
2023-04-01T13:42:27.076Z,0.48
2023-04-01T13:44:53.326Z,0.55
2023-04-01T13:47:19.597Z,0.50
2023-04-01T13:49:45.885Z,0.44
2023-04-01T13:52:12.153Z,0.44
2023-04-01T13:54:38.408Z,0.44
2023-04-01T13:57:04.756Z,0.46
2023-04-01T13:59:31.028Z,0.50
2023-04-01T14:01:57.292Z,0.51
2023-04-01T14:04:23.554Z,0.52
2023-04-01T14:06:49.827Z,0.47
2023-04-01T14:09:16.092Z,0.42
2023-04-01T14:11:42.387Z,0.38
2023-04-01T14:14:08.661Z,0.46
2023-04-01T14:16:34.951Z,0.52
2023-04-01T14:19:01.213Z,0.39
2023-04-01T14:21:27.464Z,0.45
2023-04-01T14:23:53.745Z,0.44
2023-04-01T14:26:20.005Z,0.42
2023-04-01T14:28:46.292Z,0.52
2023-04-01T14:31:12.541Z,0.62
2023-04-01T14:33:38.801Z,0.80
2023-04-01T14:36:05.090Z,0.64
2023-04-01T14:38:31.393Z,0.55
2023-04-01T14:40:57.740Z,0.64
2023-04-01T14:43:23.997Z,0.56
2023-04-01T14:45:50.252Z,0.63
2023-04-01T14:48:16.542Z,0.58
2023-04-01T14:50:42.801Z,0.58
2023-04-01T14:53:09.034Z,0.50
2023-04-01T14:55:35.537Z,0.44
2023-04-01T14:58:02.021Z,0.40
2023-04-01T15:00:28.289Z,0.50
2023-04-01T15:02:54.538Z,0.57
2023-04-01T15:05:20.857Z,0.70
2023-04-01T15:07:47.157Z,0.99
2023-04-01T15:10:13.417Z,0.92
2023-04-01T15:12:39.785Z,0.58
2023-04-01T15:15:06.123Z,0.51
2023-04-01T15:17:32.442Z,0.39
2023-04-01T15:19:58.766Z,0.68
2023-04-01T15:22:25.144Z,0.64
2023-04-01T15:24:51.520Z,0.40
2023-04-01T15:27:17.780Z,0.47
2023-04-01T15:29:44.054Z,0.45
2023-04-01T15:32:10.323Z,0.46
2023-04-01T15:34:36.614Z,0.40
2023-04-01T15:37:02.867Z,0.44
2023-04-01T15:39:29.119Z,0.45
2023-04-01T15:41:55.398Z,0.39
2023-04-01T15:44:21.667Z,0.41
2023-04-01T15:46:47.995Z,0.59
2023-04-01T15:49:14.407Z,0.47
2023-04-01T15:51:40.655Z,0.54
2023-04-01T15:54:06.950Z,0.70
2023-04-01T15:56:33.260Z,0.61
2023-04-01T15:58:59.567Z,0.45
2023-04-01T16:01:25.859Z,0.46
2023-04-01T16:03:52.252Z,0.58
2023-04-01T16:06:18.573Z,0.51
2023-04-01T16:08:44.855Z,0.94
2023-04-01T16:11:11.107Z,0.64
2023-04-01T16:13:37.356Z,0.49
2023-04-01T16:16:03.710Z,0.51
2023-04-01T16:18:30.062Z,0.50
2023-04-01T16:20:56.324Z,0.52
2023-04-01T16:23:22.626Z,0.85
2023-04-01T16:25:48.918Z,0.72
2023-04-01T16:28:18.214Z,0.57
2023-04-01T16:30:44.508Z,0.59
2023-04-01T16:33:10.793Z,0.42
2023-04-01T16:35:37.075Z,0.49
2023-04-01T16:38:03.365Z,0.53
2023-04-01T16:40:29.663Z,0.37
2023-04-01T16:42:55.973Z,0.55
2023-04-01T16:45:22.262Z,0.64
2023-04-01T16:47:48.626Z,0.48
2023-04-01T16:50:14.936Z,0.63
2023-04-01T16:52:41.208Z,0.76
2023-04-01T16:55:07.737Z,0.78
2023-04-01T16:57:34.001Z,0.82
2023-04-01T17:00:00.303Z,0.79
2023-04-01T17:02:26.661Z,0.83
2023-04-01T17:04:53.006Z,0.71
2023-04-01T17:07:19.294Z,0.81
2023-04-01T17:09:45.552Z,0.76
2023-04-01T17:12:11.844Z,0.67
2023-04-01T17:14:38.121Z,0.59
2023-04-01T17:17:04.402Z,0.62
2023-04-01T17:19:30.685Z,0.55
2023-04-01T17:21:56.994Z,0.67
2023-04-01T17:24:23.343Z,0.58
2023-04-01T17:26:49.641Z,0.65
2023-04-01T17:29:15.893Z,0.66
2023-04-01T17:31:42.192Z,0.68
2023-04-01T17:34:08.522Z,0.74
2023-04-01T17:36:34.790Z,0.69
2023-04-01T17:39:01.066Z,0.55
2023-04-01T17:41:27.372Z,0.71
2023-04-01T17:43:53.638Z,0.78
2023-04-01T17:46:19.935Z,0.76
2023-04-01T17:48:46.193Z,0.82
2023-04-01T17:51:12.445Z,0.72
2023-04-01T17:53:38.705Z,0.65
2023-04-01T17:56:05.090Z,0.59
2023-04-01T17:58:31.330Z,0.74
2023-04-01T18:00:57.764Z,0.76
2023-04-01T18:03:24.204Z,0.70
2023-04-01T18:05:50.555Z,0.69
2023-04-01T18:08:16.823Z,0.77
2023-04-01T18:10:43.074Z,0.73
2023-04-01T18:13:09.368Z,0.88
2023-04-01T18:15:35.665Z,0.85
2023-04-01T18:18:02.019Z,0.76
2023-04-01T18:20:28.324Z,0.93
2023-04-01T18:22:54.572Z,0.84
2023-04-01T18:25:20.852Z,0.90
2023-04-01T18:27:47.115Z,0.85
2023-04-01T18:30:13.373Z,0.92
2023-04-01T18:32:39.696Z,1.16
2023-04-01T18:35:06.017Z,1.07
2023-04-01T18:37:32.271Z,1.15
2023-04-01T18:39:58.530Z,1.15
2023-04-01T18:42:24.829Z,0.85
2023-04-01T18:44:51.081Z,0.89
2023-04-01T18:47:17.392Z,0.97
2023-04-01T18:49:43.693Z,0.94
2023-04-01T18:52:09.972Z,0.81
2023-04-01T18:54:36.249Z,0.93
2023-04-01T18:57:02.536Z,1.01
2023-04-01T18:59:28.824Z,1.04
2023-04-01T19:01:55.099Z,0.82
2023-04-01T19:04:21.373Z,0.79
2023-04-01T19:06:47.652Z,0.84
2023-04-01T19:09:14.024Z,0.78
2023-04-01T19:11:40.349Z,0.81
2023-04-01T19:14:06.626Z,0.89
2023-04-01T19:16:32.921Z,0.79
2023-04-01T19:18:59.204Z,0.80
2023-04-01T19:21:25.524Z,0.85
2023-04-01T19:23:51.791Z,0.92
2023-04-01T19:26:18.144Z,0.90
2023-04-01T19:28:44.434Z,0.96
2023-04-01T19:31:10.701Z,0.93
2023-04-01T19:33:37.128Z,1.05
2023-04-01T19:36:03.438Z,0.76
2023-04-01T19:38:29.708Z,0.91
2023-04-01T19:40:56.130Z,0.81
2023-04-01T19:43:22.423Z,0.81
2023-04-01T19:45:48.780Z,0.90
2023-04-01T19:48:15.038Z,0.90
2023-04-01T19:50:41.287Z,0.95
2023-04-01T19:53:07.598Z,0.78
2023-04-01T19:55:33.962Z,1.03
2023-04-01T19:58:00.406Z,0.97
2023-04-01T20:00:26.715Z,0.96
2023-04-01T20:02:53.074Z,1.29
2023-04-01T20:05:19.492Z,1.02
2023-04-01T20:07:45.788Z,0.84
2023-04-01T20:10:12.053Z,1.02
2023-04-01T20:12:38.332Z,0.90
2023-04-01T20:15:04.625Z,0.94
2023-04-01T20:17:30.936Z,0.95
2023-04-01T20:19:57.212Z,1.15
2023-04-01T20:22:23.568Z,1.29
2023-04-01T20:24:49.884Z,1.04
2023-04-01T20:27:16.158Z,1.09
2023-04-01T20:29:42.442Z,1.07
2023-04-01T20:32:08.781Z,1.08
2023-04-01T20:34:35.083Z,1.24
2023-04-01T20:37:01.380Z,1.44
2023-04-01T20:39:27.691Z,0.96
2023-04-01T20:41:53.964Z,0.93
2023-04-01T20:44:20.226Z,1.10
2023-04-01T20:46:47.077Z,1.12
2023-04-01T20:49:14.250Z,1.26
2023-04-01T20:51:40.577Z,1.15
2023-04-01T20:54:06.819Z,1.25
2023-04-01T20:56:33.076Z,1.22
2023-04-01T20:58:59.380Z,1.30
2023-04-01T21:01:25.703Z,1.16
2023-04-01T21:03:52.025Z,1.14
2023-04-01T21:06:18.289Z,1.02
2023-04-01T21:08:44.588Z,1.04
2023-04-01T21:11:10.820Z,0.79
2023-04-01T21:13:37.085Z,0.83
2023-04-01T21:16:03.465Z,0.95
2023-04-01T21:18:29.788Z,1.02
2023-04-01T21:20:56.045Z,0.85
2023-04-01T21:23:22.329Z,0.81
2023-04-01T21:25:48.575Z,0.80
2023-04-01T21:28:14.862Z,0.94
2023-04-01T21:30:41.137Z,0.75
2023-04-01T21:33:07.431Z,0.87
2023-04-01T21:35:34.029Z,0.84
2023-04-01T21:38:00.635Z,0.90
2023-04-01T21:40:26.873Z,0.71
2023-04-01T21:42:53.150Z,0.85
2023-04-01T21:45:19.432Z,0.84
2023-04-01T21:47:45.705Z,0.78
2023-04-01T21:50:12.008Z,0.85
2023-04-01T21:52:38.316Z,0.87
2023-04-01T21:55:04.595Z,0.93
2023-04-01T21:57:30.994Z,0.95
2023-04-01T21:59:57.332Z,0.85
2023-04-01T22:02:23.642Z,0.76
2023-04-01T22:04:49.935Z,0.75
2023-04-01T22:07:16.211Z,0.83
2023-04-01T22:09:42.508Z,0.76
2023-04-01T22:12:08.799Z,0.77
2023-04-01T22:14:35.082Z,0.77
2023-04-01T22:17:01.370Z,0.92
2023-04-01T22:19:27.607Z,0.81
2023-04-01T22:21:53.890Z,1.00
2023-04-01T22:24:20.136Z,0.97
2023-04-01T22:26:46.443Z,0.87
2023-04-01T22:29:12.728Z,0.96
2023-04-01T22:31:39.076Z,0.93
2023-04-01T22:34:05.353Z,1.09
2023-04-01T22:36:31.630Z,1.03
2023-04-01T22:38:57.902Z,1.19
2023-04-01T22:41:24.180Z,1.04
2023-04-01T22:43:50.425Z,1.01
2023-04-01T22:46:16.727Z,1.03
2023-04-01T22:48:43.024Z,1.03
2023-04-01T22:51:09.273Z,0.86
2023-04-01T22:53:35.539Z,1.01
2023-04-01T22:56:01.804Z,0.86
2023-04-01T22:58:28.054Z,0.79
2023-04-01T23:00:54.347Z,0.88
2023-04-01T23:03:20.631Z,0.94
2023-04-01T23:05:46.911Z,0.90
2023-04-01T23:08:13.180Z,0.83
2023-04-01T23:10:39.476Z,0.79
2023-04-01T23:13:05.726Z,0.79
2023-04-01T23:15:32.047Z,0.98
2023-04-01T23:17:58.430Z,0.83
2023-04-01T23:20:24.721Z,0.95
2023-04-01T23:22:50.985Z,0.90
2023-04-01T23:25:17.243Z,0.91
2023-04-01T23:27:43.521Z,0.84
2023-04-01T23:30:09.783Z,1.02
2023-04-01T23:32:36.131Z,1.03
2023-04-01T23:35:02.431Z,0.82
2023-04-01T23:37:28.695Z,0.94
2023-04-01T23:39:54.989Z,0.98
2023-04-01T23:42:21.304Z,0.99
2023-04-01T23:44:47.556Z,0.96
2023-04-01T23:47:13.831Z,0.93
2023-04-01T23:49:40.120Z,0.97
2023-04-01T23:52:06.361Z,1.06
2023-04-01T23:54:32.656Z,0.91
2023-04-01T23:56:58.927Z,0.90
2023-04-01T23:59:25.191Z,0.98
